createdAt,value
2023-05-10T00:00:23.972Z,7.50
2023-05-10T00:03:10.284Z,7.50
2023-05-10T00:05:38.441Z,7.40
2023-05-10T00:08:07.138Z,7.30
2023-05-10T00:10:35.227Z,7.20
2023-05-10T00:13:03.691Z,7.20
2023-05-10T00:15:34.312Z,7.20
2023-05-10T00:18:02.877Z,7.20
2023-05-10T00:20:31.142Z,7.20
2023-05-10T00:22:59.491Z,7.20
2023-05-10T00:25:27.870Z,7.20
2023-05-10T00:27:58.736Z,7.20
2023-05-10T00:30:26.563Z,7.20
2023-05-10T00:32:54.848Z,7.20
2023-05-10T00:35:23.023Z,7.20
2023-05-10T00:37:51.117Z,7.20
2023-05-10T00:40:18.966Z,7.20
2023-05-10T00:42:52.019Z,7.20
2023-05-10T00:45:20.601Z,7.20
2023-05-10T00:47:49.080Z,7.20
2023-05-10T00:50:17.572Z,7.20
2023-05-10T00:52:46.238Z,7.20
2023-05-10T00:55:14.797Z,7.20
2023-05-10T00:57:43.954Z,7.20
2023-05-10T01:00:12.659Z,7.20
2023-05-10T01:02:42.913Z,7.20
2023-05-10T01:05:10.821Z,7.20
2023-05-10T01:07:38.940Z,7.20
2023-05-10T01:10:08.337Z,7.20
2023-05-10T01:12:41.872Z,7.10
2023-05-10T01:15:12.399Z,7.00
2023-05-10T01:17:43.852Z,7.00
2023-05-10T01:20:13.185Z,7.00
2023-05-10T01:22:47.253Z,7.00
2023-05-10T01:25:29.918Z,7.00
2023-05-10T01:28:19.431Z,7.00
2023-05-10T01:31:09.974Z,6.90
2023-05-10T01:33:46.269Z,6.90
2023-05-10T01:36:19.853Z,6.90
2023-05-10T01:38:59.358Z,6.90
2023-05-10T01:41:45.786Z,6.90
2023-05-10T01:44:30.179Z,6.90
2023-05-10T01:47:28.997Z,6.90
2023-05-10T01:50:03.571Z,6.90
2023-05-10T01:52:45.822Z,6.90
2023-05-10T01:55:18.009Z,6.90
2023-05-10T01:57:47.817Z,6.90
2023-05-10T02:00:17.595Z,6.90
2023-05-10T02:02:51.664Z,6.90
2023-05-10T02:05:21.812Z,6.90
2023-05-10T02:07:51.577Z,6.90
2023-05-10T02:10:22.083Z,6.90
2023-05-10T02:12:52.060Z,6.90
2023-05-10T02:15:25.026Z,6.90
2023-05-10T02:17:54.140Z,6.80
2023-05-10T02:20:24.674Z,6.80
2023-05-10T02:22:55.689Z,6.80
2023-05-10T02:25:26.849Z,6.80
2023-05-10T02:27:59.248Z,6.80
2023-05-10T02:30:28.313Z,6.80
2023-05-10T02:32:57.854Z,6.80
2023-05-10T02:35:27.883Z,6.70
2023-05-10T02:37:57.804Z,6.80
2023-05-10T02:40:28.930Z,6.70
2023-05-10T02:43:01.042Z,6.70
2023-05-10T02:45:32.500Z,6.70
2023-05-10T02:48:01.043Z,6.70
2023-05-10T02:50:31.490Z,6.70
2023-05-10T02:53:03.504Z,6.70
2023-05-10T02:55:37.910Z,6.70
2023-05-10T02:58:06.561Z,6.70
2023-05-10T03:00:35.069Z,6.70
2023-05-10T03:03:03.032Z,6.70
2023-05-10T03:05:31.289Z,6.70
2023-05-10T03:08:05.497Z,6.60
2023-05-10T03:10:36.521Z,6.60
2023-05-10T03:13:36.710Z,6.60
2023-05-10T03:16:11.580Z,6.60
2023-05-10T03:19:27.857Z,6.70
2023-05-10T03:22:00.888Z,6.70
2023-05-10T03:24:35.175Z,6.70
2023-05-10T03:27:05.697Z,6.80
2023-05-10T03:29:34.285Z,6.80
2023-05-10T03:32:02.509Z,6.80
2023-05-10T03:34:34.993Z,6.80
2023-05-10T03:37:03.200Z,6.90
2023-05-10T03:39:32.850Z,7.00
2023-05-10T03:42:02.629Z,7.00
2023-05-10T03:44:32.398Z,7.20
2023-05-10T03:47:01.071Z,7.40
2023-05-10T03:49:28.883Z,7.50
2023-05-10T03:51:57.277Z,7.60
2023-05-10T03:54:25.703Z,7.80
2023-05-10T03:56:53.995Z,7.90
2023-05-10T03:59:23.063Z,8.00
2023-05-10T04:01:53.327Z,8.20
2023-05-10T04:04:22.220Z,8.30
2023-05-10T04:06:51.914Z,8.50
2023-05-10T04:09:20.932Z,8.60
2023-05-10T04:11:49.431Z,8.90
2023-05-10T04:14:17.864Z,9.20
2023-05-10T04:16:46.332Z,9.40
2023-05-10T04:19:14.142Z,9.60
2023-05-10T04:21:42.703Z,9.90
2023-05-10T04:24:10.844Z,10.10
2023-05-10T04:26:38.832Z,10.40
2023-05-10T04:29:06.374Z,10.70
2023-05-10T04:31:35.731Z,10.90
2023-05-10T04:34:03.457Z,11.10
2023-05-10T04:36:31.562Z,11.50
2023-05-10T04:38:59.652Z,11.70
2023-05-10T04:41:28.118Z,12.10
2023-05-10T04:43:56.481Z,12.30
2023-05-10T04:46:24.887Z,12.60
2023-05-10T04:48:52.851Z,12.90
2023-05-10T04:51:21.882Z,13.10
2023-05-10T04:54:01.589Z,13.30
2023-05-10T04:56:33.469Z,13.50
2023-05-10T04:59:01.941Z,13.90
2023-05-10T05:01:30.718Z,14.20
2023-05-10T05:03:59.071Z,14.40
2023-05-10T05:06:28.560Z,14.80
2023-05-10T05:08:56.755Z,15.00
2023-05-10T05:11:24.974Z,15.30
2023-05-10T05:13:52.997Z,15.60
2023-05-10T05:16:21.363Z,16.00
2023-05-10T05:18:49.449Z,16.40
2023-05-10T05:21:20.821Z,16.90
2023-05-10T05:23:48.607Z,17.20
2023-05-10T05:26:17.969Z,17.50
2023-05-10T05:28:45.996Z,17.70
2023-05-10T05:31:16.073Z,18.00
2023-05-10T05:33:43.841Z,18.60
2023-05-10T05:36:12.091Z,19.30
2023-05-10T05:38:40.566Z,19.90
2023-05-10T05:41:08.689Z,20.50
2023-05-10T05:43:38.311Z,21.10
2023-05-10T05:46:07.747Z,21.70
2023-05-10T05:48:35.809Z,22.20
2023-05-10T05:51:06.538Z,22.50
2023-05-10T05:53:35.445Z,22.90
2023-05-10T05:56:04.999Z,23.60
2023-05-10T05:58:32.822Z,24.00
2023-05-10T06:01:01.014Z,24.20
2023-05-10T06:03:30.448Z,24.20
2023-05-10T06:05:58.720Z,24.30
2023-05-10T06:08:27.036Z,24.50
2023-05-10T06:10:55.713Z,24.60
2023-05-10T06:13:24.020Z,24.70
2023-05-10T06:15:52.546Z,24.90
2023-05-10T06:18:20.444Z,24.80
2023-05-10T06:20:48.652Z,24.50
2023-05-10T06:23:17.922Z,24.40
2023-05-10T06:25:46.201Z,24.20
2023-05-10T06:28:14.058Z,24.10
2023-05-10T06:30:42.299Z,23.90
2023-05-10T06:33:10.266Z,24.00
2023-05-10T06:35:38.644Z,24.20
2023-05-10T06:38:06.685Z,24.30
2023-05-10T06:40:34.949Z,24.90
2023-05-10T06:43:02.824Z,25.60
2023-05-10T06:45:31.313Z,25.80
2023-05-10T06:47:59.158Z,25.80
2023-05-10T06:50:27.511Z,25.80
2023-05-10T06:52:56.735Z,25.50
2023-05-10T06:55:24.869Z,25.80
2023-05-10T06:57:52.958Z,26.10
2023-05-10T07:00:22.128Z,26.00
2023-05-10T07:02:50.043Z,25.80
2023-05-10T07:05:18.963Z,25.70
2023-05-10T07:07:46.795Z,25.80
2023-05-10T07:10:15.331Z,25.60
2023-05-10T07:12:43.362Z,25.70
2023-05-10T07:15:11.912Z,25.90
2023-05-10T07:17:40.424Z,26.20
2023-05-10T07:20:10.315Z,26.10
2023-05-10T07:22:38.262Z,26.00
2023-05-10T07:25:06.750Z,26.20
2023-05-10T07:27:35.813Z,27.10
2023-05-10T07:30:04.206Z,27.30
2023-05-10T07:32:33.047Z,27.30
2023-05-10T07:35:01.399Z,27.40
2023-05-10T07:37:29.146Z,27.40
2023-05-10T07:39:59.330Z,27.40
2023-05-10T07:42:27.107Z,27.30
2023-05-10T07:44:55.214Z,27.20
2023-05-10T07:47:23.101Z,27.30
2023-05-10T07:49:51.741Z,27.50
2023-05-10T07:52:21.232Z,28.00
2023-05-10T07:54:51.255Z,28.10
2023-05-10T07:57:19.705Z,28.30
2023-05-10T07:59:49.111Z,28.60
2023-05-10T08:02:16.920Z,28.60
2023-05-10T08:04:45.253Z,28.40
2023-05-10T08:07:13.084Z,28.20
2023-05-10T08:09:41.290Z,28.20
2023-05-10T08:12:09.194Z,28.50
2023-05-10T08:14:40.719Z,28.80
2023-05-10T08:17:08.451Z,28.80
2023-05-10T08:19:37.042Z,28.70
2023-05-10T08:22:04.817Z,28.50
2023-05-10T08:24:33.023Z,28.70
2023-05-10T08:27:00.827Z,28.90
2023-05-10T08:29:32.733Z,29.20
2023-05-10T08:32:03.566Z,29.30
2023-05-10T08:34:32.547Z,29.20
2023-05-10T08:37:00.348Z,29.40
2023-05-10T08:39:30.692Z,29.20
2023-05-10T08:42:03.989Z,29.10
2023-05-10T08:44:37.508Z,29.50
2023-05-10T08:47:10.487Z,30.30
2023-05-10T08:49:38.959Z,30.80
2023-05-10T08:52:08.742Z,31.30
2023-05-10T08:54:36.837Z,32.10
2023-05-10T08:57:06.467Z,32.40
2023-05-10T08:59:34.790Z,32.00
2023-05-10T09:02:03.568Z,31.80
2023-05-10T09:04:33.601Z,32.00
2023-05-10T09:07:01.737Z,31.90
2023-05-10T09:09:30.325Z,31.80
2023-05-10T09:11:58.241Z,32.10
2023-05-10T09:14:26.886Z,32.20
2023-05-10T09:16:56.692Z,32.50
2023-05-10T09:19:25.102Z,32.50
2023-05-10T09:21:53.378Z,32.80
2023-05-10T09:24:27.760Z,32.80
2023-05-10T09:26:57.956Z,33.00
2023-05-10T09:29:26.019Z,32.80
2023-05-10T09:31:56.706Z,32.80
2023-05-10T09:34:33.413Z,33.10
2023-05-10T09:37:02.788Z,32.80
2023-05-10T09:39:35.662Z,32.40
2023-05-10T09:42:06.153Z,32.20
2023-05-10T09:44:36.836Z,32.00
2023-05-10T09:47:04.618Z,32.00
2023-05-10T09:49:34.596Z,32.50
2023-05-10T09:52:09.177Z,33.00
2023-05-10T09:54:38.628Z,33.00
2023-05-10T09:57:06.597Z,33.00
2023-05-10T09:59:36.252Z,33.00
2023-05-10T10:02:04.645Z,32.80
2023-05-10T10:04:33.070Z,32.80
2023-05-10T10:07:05.955Z,32.20
2023-05-10T10:09:35.740Z,31.90
2023-05-10T10:12:04.981Z,31.70
2023-05-10T10:14:33.316Z,31.80
2023-05-10T10:17:07.291Z,31.70
2023-05-10T10:19:38.203Z,31.60
2023-05-10T10:22:07.463Z,31.30
2023-05-10T10:24:35.662Z,31.40
2023-05-10T10:27:26.270Z,31.40
2023-05-10T10:30:19.714Z,31.20
2023-05-10T10:33:32.634Z,31.70
2023-05-10T10:36:03.552Z,31.90
2023-05-10T10:39:01.822Z,31.60
2023-05-10T10:41:35.999Z,31.50
2023-05-10T10:44:35.399Z,32.00
2023-05-10T10:47:12.917Z,32.00
2023-05-10T10:49:47.038Z,31.90
2023-05-10T10:52:28.232Z,31.70
2023-05-10T10:54:59.148Z,31.60
2023-05-10T10:57:28.569Z,31.40
2023-05-10T11:00:39.768Z,31.50
2023-05-10T11:03:19.818Z,31.60
2023-05-10T11:05:52.755Z,31.90
2023-05-10T11:08:33.083Z,32.20
2023-05-10T11:11:01.994Z,32.20
2023-05-10T11:13:42.043Z,32.10
2023-05-10T11:16:22.832Z,31.60
2023-05-10T11:19:04.344Z,30.90
2023-05-10T11:21:34.950Z,30.80
2023-05-10T11:24:07.287Z,30.90
2023-05-10T11:26:38.500Z,30.50
2023-05-10T11:29:06.888Z,30.30
2023-05-10T11:31:35.083Z,30.30
2023-05-10T11:34:03.775Z,30.30
2023-05-10T11:36:35.849Z,30.60
2023-05-10T11:39:05.097Z,30.90
2023-05-10T11:41:33.599Z,31.50
2023-05-10T11:44:01.986Z,31.10
2023-05-10T11:46:29.964Z,31.00
2023-05-10T11:49:05.616Z,31.00
2023-05-10T11:51:37.590Z,31.00
2023-05-10T11:54:10.686Z,31.00
2023-05-10T11:56:39.848Z,31.50
2023-05-10T11:59:09.377Z,31.30
2023-05-10T12:01:38.141Z,31.10
2023-05-10T12:04:07.235Z,30.90
2023-05-10T12:06:41.896Z,30.80
2023-05-10T12:09:10.132Z,30.60
2023-05-10T12:11:44.331Z,30.70
2023-05-10T12:14:12.992Z,30.30
2023-05-10T12:16:41.217Z,29.90
2023-05-10T12:19:09.477Z,29.60
2023-05-10T12:21:37.825Z,29.50
2023-05-10T12:24:08.496Z,29.50
2023-05-10T12:26:37.481Z,29.50
2023-05-10T12:29:26.210Z,29.30
2023-05-10T12:31:56.750Z,28.90
2023-05-10T12:34:32.249Z,28.80
2023-05-10T12:37:01.055Z,28.50
2023-05-10T12:39:43.601Z,28.10
2023-05-10T12:42:12.320Z,27.90
2023-05-10T12:44:41.136Z,27.70
2023-05-10T12:47:09.273Z,27.40
2023-05-10T12:49:37.831Z,27.00
2023-05-10T12:52:05.600Z,26.90
2023-05-10T12:54:33.833Z,26.70
2023-05-10T12:57:01.595Z,26.50
2023-05-10T12:59:29.652Z,26.30
2023-05-10T13:01:58.650Z,26.00
2023-05-10T13:04:27.068Z,25.70
2023-05-10T13:06:57.495Z,25.50
2023-05-10T13:09:26.649Z,25.30
2023-05-10T13:11:55.562Z,25.20
2023-05-10T13:14:24.126Z,25.30
2023-05-10T13:16:52.097Z,25.10
2023-05-10T13:19:20.343Z,24.80
2023-05-10T13:21:48.512Z,24.50
2023-05-10T13:24:18.244Z,24.40
2023-05-10T13:26:46.334Z,24.30
2023-05-10T13:29:14.891Z,24.20
2023-05-10T13:31:42.858Z,24.00
2023-05-10T13:34:11.376Z,23.60
2023-05-10T13:36:39.524Z,23.50
2023-05-10T13:39:07.817Z,23.50
2023-05-10T13:41:35.798Z,23.20
2023-05-10T13:44:05.124Z,22.80
2023-05-10T13:46:33.087Z,22.50
2023-05-10T13:49:01.654Z,22.10
2023-05-10T13:51:29.425Z,21.80
2023-05-10T13:53:57.674Z,21.60
2023-05-10T13:56:25.773Z,21.50
2023-05-10T13:58:54.409Z,21.30
2023-05-10T14:01:22.337Z,21.10
2023-05-10T14:03:53.009Z,21.10
2023-05-10T14:06:20.880Z,21.10
2023-05-10T14:08:54.706Z,21.20
2023-05-10T14:11:24.544Z,21.20
2023-05-10T14:13:53.320Z,21.10
2023-05-10T14:16:21.696Z,21.10
2023-05-10T14:18:51.017Z,21.10
2023-05-10T14:21:18.926Z,21.10
2023-05-10T14:23:47.124Z,20.90
2023-05-10T14:26:15.701Z,20.90
2023-05-10T14:28:46.434Z,20.80
2023-05-10T14:31:15.533Z,20.70
2023-05-10T14:33:44.740Z,20.60
2023-05-10T14:36:13.282Z,20.70
2023-05-10T14:38:42.326Z,20.70
2023-05-10T14:41:15.355Z,20.70
2023-05-10T14:43:43.697Z,20.60
2023-05-10T14:46:11.700Z,20.60
2023-05-10T14:48:39.779Z,20.70
2023-05-10T14:51:08.078Z,20.70
2023-05-10T14:53:36.583Z,20.80
2023-05-10T14:56:04.523Z,20.70
2023-05-10T14:58:36.874Z,20.60
2023-05-10T15:01:05.196Z,20.50
2023-05-10T15:03:34.999Z,20.50
2023-05-10T15:06:03.730Z,20.60
2023-05-10T15:08:33.136Z,20.70
2023-05-10T15:11:01.041Z,20.70
2023-05-10T15:13:29.290Z,20.70
2023-05-10T15:15:57.538Z,20.70
2023-05-10T15:18:25.824Z,20.80
2023-05-10T15:20:53.550Z,20.80
2023-05-10T15:23:21.810Z,20.70
2023-05-10T15:25:51.074Z,20.60
2023-05-10T15:28:19.495Z,20.50
2023-05-10T15:30:47.377Z,20.50
2023-05-10T15:33:15.455Z,20.30
2023-05-10T15:35:43.162Z,20.30
2023-05-10T15:38:11.580Z,20.30
2023-05-10T15:40:39.233Z,20.30
2023-05-10T15:43:07.707Z,20.20
2023-05-10T15:45:37.643Z,20.30
2023-05-10T15:48:06.147Z,20.30
2023-05-10T15:50:33.937Z,20.30
2023-05-10T15:53:02.017Z,20.30
2023-05-10T15:55:29.985Z,20.30
2023-05-10T15:57:58.079Z,20.30
2023-05-10T16:00:26.417Z,20.30
2023-05-10T16:02:55.494Z,20.10
2023-05-10T16:05:23.535Z,20.00
2023-05-10T16:07:52.182Z,19.80
2023-05-10T16:10:19.913Z,19.70
2023-05-10T16:12:49.160Z,19.80
2023-05-10T16:15:17.308Z,19.90
2023-05-10T16:17:47.585Z,19.90
2023-05-10T16:20:15.493Z,20.00
2023-05-10T16:22:44.733Z,20.10
2023-05-10T16:25:13.981Z,20.10
2023-05-10T16:27:43.466Z,20.10
2023-05-10T16:30:11.627Z,20.30
2023-05-10T16:32:39.890Z,20.30
2023-05-10T16:35:08.517Z,20.30
2023-05-10T16:37:37.163Z,20.30
2023-05-10T16:40:05.719Z,20.20
2023-05-10T16:42:34.208Z,20.20
2023-05-10T16:45:07.715Z,20.20
2023-05-10T16:47:40.460Z,20.20
2023-05-10T16:50:09.256Z,20.10
2023-05-10T16:52:38.938Z,20.20
2023-05-10T16:55:07.001Z,20.10
2023-05-10T16:57:36.267Z,20.00
2023-05-10T17:00:06.184Z,19.90
2023-05-10T17:02:34.704Z,19.70
2023-05-10T17:05:02.645Z,19.70
2023-05-10T17:07:31.122Z,19.50
2023-05-10T17:09:59.866Z,19.50
2023-05-10T17:12:28.229Z,19.40
2023-05-10T17:14:56.516Z,19.20
2023-05-10T17:17:25.547Z,19.20
2023-05-10T17:19:53.589Z,19.10
2023-05-10T17:22:25.878Z,19.00
2023-05-10T17:24:53.840Z,18.90
2023-05-10T17:27:22.155Z,18.90
2023-05-10T17:29:49.969Z,18.80
2023-05-10T17:32:18.136Z,18.60
2023-05-10T17:34:46.003Z,18.50
2023-05-10T17:37:14.171Z,18.40
2023-05-10T17:39:42.225Z,18.30
2023-05-10T17:42:13.006Z,18.20
2023-05-10T17:44:41.194Z,18.10
2023-05-10T17:47:12.076Z,18.00
2023-05-10T17:49:40.396Z,17.90
2023-05-10T17:52:10.707Z,17.90
2023-05-10T17:54:38.747Z,17.80
2023-05-10T17:57:06.934Z,17.60
2023-05-10T17:59:35.784Z,17.50
2023-05-10T18:02:05.360Z,17.50
2023-05-10T18:04:34.194Z,17.40
2023-05-10T18:07:04.283Z,17.20
2023-05-10T18:09:32.373Z,17.20
2023-05-10T18:12:02.865Z,17.20
2023-05-10T18:14:40.461Z,17.10
2023-05-10T18:17:11.875Z,17.00
2023-05-10T18:19:41.156Z,17.00
2023-05-10T18:22:16.509Z,17.00
2023-05-10T18:24:47.336Z,16.90
2023-05-10T18:27:16.287Z,16.80
2023-05-10T18:29:46.308Z,16.70
2023-05-10T18:32:14.609Z,16.70
2023-05-10T18:34:55.887Z,16.60
2023-05-10T18:37:26.474Z,16.60
2023-05-10T18:39:54.402Z,16.50
2023-05-10T18:42:24.954Z,16.40
2023-05-10T18:44:53.839Z,16.40
2023-05-10T18:47:22.408Z,16.30
2023-05-10T18:49:50.463Z,16.20
2023-05-10T18:52:19.507Z,16.00
2023-05-10T18:54:48.308Z,16.00
2023-05-10T18:57:17.284Z,15.80
2023-05-10T18:59:45.691Z,15.70
2023-05-10T19:02:14.276Z,15.60
2023-05-10T19:04:42.844Z,15.50
2023-05-10T19:07:11.523Z,15.40
2023-05-10T19:09:40.754Z,15.30
2023-05-10T19:12:10.234Z,15.20
2023-05-10T19:14:44.388Z,15.10
2023-05-10T19:17:14.436Z,15.00
2023-05-10T19:25:09.993Z,14.70
2023-05-10T19:27:43.050Z,14.60
2023-05-10T19:30:19.448Z,14.50
2023-05-10T19:32:52.744Z,14.40
2023-05-10T19:35:22.342Z,14.30
2023-05-10T19:37:53.269Z,14.30
2023-05-10T19:40:23.308Z,14.20
2023-05-10T19:42:57.051Z,14.10
2023-05-10T19:45:25.883Z,14.00
2023-05-10T19:47:54.222Z,14.00
2023-05-10T19:50:24.307Z,13.90
2023-05-10T19:52:53.253Z,13.90
2023-05-10T19:55:31.682Z,13.90
2023-05-10T19:58:01.221Z,13.90
2023-05-10T20:00:29.948Z,13.70
2023-05-10T20:02:58.928Z,13.60
2023-05-10T20:05:27.865Z,13.50
2023-05-10T20:07:56.453Z,13.50
2023-05-10T20:10:27.187Z,13.50
2023-05-10T20:12:56.466Z,13.40
2023-05-10T20:15:24.603Z,13.40
2023-05-10T20:17:58.434Z,13.30
2023-05-10T20:20:26.644Z,13.30
2023-05-10T20:22:55.793Z,13.30
2023-05-10T20:25:24.468Z,13.10
2023-05-10T20:27:53.778Z,13.10
2023-05-10T20:30:22.855Z,13.10
2023-05-10T20:32:52.836Z,13.00
2023-05-10T20:35:22.500Z,13.00
2023-05-10T20:37:51.263Z,13.00
2023-05-10T20:40:19.714Z,13.00
2023-05-10T20:42:49.908Z,12.90
2023-05-10T20:45:17.678Z,12.90
2023-05-10T20:47:46.100Z,12.80
2023-05-10T20:50:13.881Z,12.80
2023-05-10T20:52:42.113Z,12.70
2023-05-10T20:55:10.234Z,12.60
2023-05-10T20:57:38.669Z,12.50
2023-05-10T21:00:07.334Z,12.50
2023-05-10T21:02:36.111Z,12.50
2023-05-10T21:05:04.203Z,12.50
2023-05-10T21:07:33.252Z,12.40
2023-05-10T21:10:01.165Z,12.30
2023-05-10T21:12:29.636Z,12.20
2023-05-10T21:14:57.406Z,12.20
2023-05-10T21:17:25.589Z,12.10
2023-05-10T21:19:53.341Z,12.10
2023-05-10T21:22:21.875Z,12.10
2023-05-10T21:24:50.869Z,12.10
2023-05-10T21:27:19.001Z,12.10
2023-05-10T21:29:46.980Z,12.10
2023-05-10T21:32:15.237Z,12.10
2023-05-10T21:34:43.247Z,12.10
2023-05-10T21:37:11.857Z,12.10
2023-05-10T21:39:39.917Z,12.10
2023-05-10T21:42:08.100Z,12.10
2023-05-10T21:44:36.598Z,12.10
2023-05-10T21:47:06.023Z,12.10
2023-05-10T21:49:33.758Z,12.00
2023-05-10T21:52:02.382Z,12.00
2023-05-10T21:54:30.134Z,12.00
2023-05-10T21:56:58.945Z,12.00
2023-05-10T21:59:26.838Z,11.90
2023-05-10T22:01:55.015Z,11.90
2023-05-10T22:04:23.324Z,11.90
2023-05-10T22:06:51.331Z,11.90
2023-05-10T22:09:19.273Z,11.80
2023-05-10T22:11:50.473Z,11.80
2023-05-10T22:14:18.220Z,11.80
2023-05-10T22:16:46.713Z,11.80
2023-05-10T22:19:14.536Z,11.70
2023-05-10T22:21:43.391Z,11.70
2023-05-10T22:24:11.349Z,11.80
2023-05-10T22:26:39.524Z,11.90
2023-05-10T22:29:07.406Z,11.90
2023-05-10T22:31:36.473Z,11.90
2023-05-10T22:34:05.051Z,12.00
2023-05-10T22:36:34.674Z,12.00
2023-05-10T22:39:02.627Z,12.00
2023-05-10T22:41:30.711Z,12.10
2023-05-10T22:43:58.600Z,12.10
2023-05-10T22:46:27.146Z,12.10
2023-05-10T22:48:55.185Z,12.10
2023-05-10T22:51:23.360Z,12.10
2023-05-10T22:53:51.206Z,12.10
2023-05-10T22:56:19.555Z,12.10
2023-05-10T22:58:47.308Z,12.10
2023-05-10T23:01:16.910Z,12.10
2023-05-10T23:03:45.212Z,12.10
2023-05-10T23:06:13.374Z,12.20
2023-05-10T23:08:41.207Z,12.20
2023-05-10T23:11:09.334Z,12.20
2023-05-10T23:13:37.029Z,12.30
2023-05-10T23:16:09.433Z,12.20
2023-05-10T23:18:37.167Z,12.30
2023-05-10T23:21:05.814Z,12.20
2023-05-10T23:23:34.990Z,12.20
2023-05-10T23:26:04.673Z,12.20
2023-05-10T23:28:34.073Z,12.20
2023-05-10T23:31:02.388Z,12.20
2023-05-10T23:33:30.224Z,12.20
2023-05-10T23:35:58.403Z,12.30
2023-05-10T23:38:26.419Z,12.30
2023-05-10T23:40:55.433Z,12.30
2023-05-10T23:43:23.364Z,12.40
2023-05-10T23:45:58.498Z,12.40
2023-05-10T23:48:26.432Z,12.40
2023-05-10T23:50:54.612Z,12.50
2023-05-10T23:53:22.639Z,12.50
2023-05-10T23:55:50.815Z,12.50
2023-05-10T23:58:18.582Z,12.50
